Time;durP1;ratioP1;P1;durP2;ratioP2;P2;SDS_P1;SDS_P2;PMS_P1;PMS_P2;Temp;Humidity;BMP_temperature;BMP_pressure;BME280_temperature;BME280_humidity;BME280_pressure;Samples;Min_cycle;Max_cycle;Signal;HPM_P1;HPM_P2
2023/05/30 00:01:19;;;;;;;18.38;4.63;;;;;;;8.18;95.59;102500.94;5095830;28;20035;-47
2023/05/30 00:03:46;;;;;;;21.08;4.50;;;;;;;8.16;96.11;102507.69;5096153;28;20095;-43
2023/05/30 00:06:12;;;;;;;25.73;5.05;;;;;;;8.11;96.43;102508.16;5095240;28;20020;-43
2023/05/30 00:08:38;;;;;;;17.48;4.47;;;;;;;8.06;97.00;102502.72;5095566;28;20032;-44
2023/05/30 00:11:04;;;;;;;20.30;4.75;;;;;;;8.06;97.43;102505.28;5095710;28;20031;-43
2023/05/30 00:13:32;;;;;;;17.38;4.82;;;;;;;8.00;97.94;102510.00;5095011;28;20053;-43
2023/05/30 00:15:58;;;;;;;19.77;4.82;;;;;;;7.96;98.42;102508.03;5095835;28;20020;-43
2023/05/30 00:18:23;;;;;;;21.55;5.13;;;;;;;7.94;99.03;102504.47;5095308;28;20046;-43
2023/05/30 00:20:50;;;;;;;22.02;5.07;;;;;;;7.88;99.30;102508.38;5094830;28;20035;-43
2023/05/30 00:23:16;;;;;;;21.85;4.63;;;;;;;7.85;99.96;102505.63;5095185;28;20146;-44
2023/05/30 00:25:42;;;;;;;19.98;4.95;;;;;;;7.83;100.00;102503.75;5095715;28;20424;-43
2023/05/30 00:28:07;;;;;;;15.98;4.53;;;;;;;7.81;100.00;102513.00;5094881;28;20027;-44
2023/05/30 00:30:36;;;;;;;21.73;4.72;;;;;;;7.75;100.00;102513.50;5095453;28;20472;-47
2023/05/30 00:33:01;;;;;;;23.67;5.35;;;;;;;7.74;100.00;102517.72;5095316;28;20065;-45
2023/05/30 00:35:26;;;;;;;20.38;5.18;;;;;;;7.72;100.00;102519.31;5094223;28;20046;-46
2023/05/30 00:37:52;;;;;;;25.70;5.28;;;;;;;7.65;100.00;102505.97;5095279;28;20035;-45
2023/05/30 00:40:17;;;;;;;22.17;5.15;;;;;;;7.63;100.00;102517.78;5094832;28;20085;-45
2023/05/30 00:42:42;;;;;;;24.48;5.30;;;;;;;7.62;100.00;102510.84;5094565;28;20028;-45
2023/05/30 00:45:08;;;;;;;19.27;5.35;;;;;;;7.57;100.00;102514.00;5095162;28;20035;-45
2023/05/30 00:47:33;;;;;;;18.73;5.18;;;;;;;7.55;100.00;102523.28;5094914;28;20018;-48
2023/05/30 00:49:59;;;;;;;24.77;5.75;;;;;;;7.53;100.00;102512.03;5094679;28;20096;-48
2023/05/30 00:52:24;;;;;;;23.35;5.10;;;;;;;7.51;100.00;102516.16;5094468;28;20028;-48
2023/05/30 00:54:50;;;;;;;24.67;5.60;;;;;;;7.47;100.00;102521.84;5094327;28;20040;-46
2023/05/30 00:57:16;;;;;;;20.00;5.32;;;;;;;7.49;100.00;102514.25;5094641;28;20452;-44
2023/05/30 00:59:42;;;;;;;15.50;5.22;;;;;;;7.47;100.00;102521.84;5094866;28;20024;-45
2023/05/30 01:02:08;;;;;;;20.83;5.05;;;;;;;7.43;100.00;102532.69;5094107;28;20035;-45
2023/05/30 01:04:34;;;;;;;21.60;5.43;;;;;;;7.34;100.00;102529.50;5094518;28;20024;-45
2023/05/30 01:06:59;;;;;;;18.25;5.32;;;;;;;7.31;100.00;102529.25;5094733;28;20065;-44
2023/05/30 01:09:25;;;;;;;22.35;5.78;;;;;;;7.27;100.00;102522.13;5093783;28;20024;-48
2023/05/30 01:12:06;;;;;;;18.17;4.88;;;;;;;7.23;100.00;102524.50;5094669;28;20035;-48
2023/05/30 01:14:49;;;;;;;23.75;5.30;;;;;;;7.22;100.00;102530.41;5094337;28;20028;-46
2023/05/30 01:17:33;;;;;;;22.02;5.68;;;;;;;7.19;100.00;102525.06;5093874;28;20024;-44
2023/05/30 01:19:58;;;;;;;21.88;5.50;;;;;;;7.17;100.00;102521.50;5094375;28;20097;-43
2023/05/30 01:22:37;;;;;;;20.23;5.63;;;;;;;7.16;100.00;102518.84;5094307;28;20036;-44
2023/05/30 01:25:21;;;;;;;22.73;6.07;;;;;;;7.14;100.00;102523.88;5093736;28;20266;-46
2023/05/30 01:28:09;;;;;;;21.35;5.85;;;;;;;7.16;100.00;102524.84;5093958;28;20025;-43
2023/05/30 01:30:38;;;;;;;31.63;6.82;;;;;;;7.12;100.00;102515.16;5093349;28;20045;-43
2023/05/30 01:33:06;;;;;;;25.75;6.03;;;;;;;7.16;100.00;102511.16;5094428;28;20032;-44
2023/05/30 01:35:31;;;;;;;22.92;5.40;;;;;;;7.15;100.00;102512.78;5094081;28;20065;-43
2023/05/30 01:37:57;;;;;;;21.55;5.78;;;;;;;7.15;100.00;102517.94;5093288;28;20103;-43
2023/05/30 01:40:28;;;;;;;23.10;6.50;;;;;;;7.11;100.00;102520.19;5093683;28;20036;-45
2023/05/30 01:43:13;;;;;;;25.45;6.68;;;;;;;7.10;100.00;102519.28;5094249;28;20027;-45
2023/05/30 01:45:51;;;;;;;20.63;5.55;;;;;;;7.12;100.00;102517.72;5093126;28;20024;-46
2023/05/30 01:48:36;;;;;;;;;;;;;;;7.20;100.00;102526.84;5094113;28;20021;-43
2023/05/30 01:51:07;;;;;;;23.77;5.97;;;;;;;7.11;100.00;102531.31;5061403;28;19916;-43
2023/05/30 01:53:43;;;;;;;24.67;6.25;;;;;;;7.11;100.00;102536.44;5093763;28;20016;-42
2023/05/30 01:56:11;;;;;;;25.15;5.75;;;;;;;7.13;100.00;102539.09;5093995;28;20020;-42
2023/05/30 01:58:38;;;;;;;24.65;6.30;;;;;;;7.07;100.00;102532.75;5092709;28;20067;-43
2023/05/30 02:01:05;;;;;;;21.85;6.07;;;;;;;7.06;100.00;102540.34;5093664;28;20028;-43
2023/05/30 02:03:30;;;;;;;24.13;6.78;;;;;;;7.02;100.00;102546.06;5093360;28;20027;-43
2023/05/30 02:05:55;;;;;;;23.42;6.18;;;;;;;6.98;100.00;102544.06;5092964;28;20028;-48
2023/05/30 02:08:21;;;;;;;25.25;7.03;;;;;;;6.96;100.00;102532.78;5093475;28;20020;-42
2023/05/30 02:10:46;;;;;;;25.73;6.63;;;;;;;6.94;100.00;102540.38;5093656;28;20027;-43
2023/05/30 02:13:12;;;;;;;27.60;6.78;;;;;;;6.92;100.00;102541.97;5092632;28;20027;-43
2023/05/30 02:15:37;;;;;;;27.50;6.93;;;;;;;6.88;100.00;102548.53;5093237;28;20028;-45
2023/05/30 02:18:06;;;;;;;23.80;6.13;;;;;;;6.82;100.00;102552.31;5093194;28;20044;-46
2023/05/30 02:20:31;;;;;;;24.58;6.90;;;;;;;6.80;100.00;102554.75;5092563;28;20081;-44
2023/05/30 02:22:57;;;;;;;22.02;6.18;;;;;;;6.77;100.00;102544.28;5093530;28;20044;-44
2023/05/30 02:25:23;;;;;;;20.60;6.22;;;;;;;6.74;100.00;102556.91;5093066;28;20360;-45
2023/05/30 02:27:50;;;;;;;27.05;6.35;;;;;;;6.74;100.00;102551.78;5092480;28;20031;-42
2023/05/30 02:30:16;;;;;;;25.92;7.10;;;;;;;6.75;100.00;102550.97;5092832;28;20494;-43
2023/05/30 02:32:41;;;;;;;23.63;7.10;;;;;;;6.73;100.00;102555.09;5093172;28;20020;-46
2023/05/30 02:35:07;;;;;;;25.75;7.63;;;;;;;6.70;100.00;102552.31;5092612;28;20024;-44
2023/05/30 02:37:32;;;;;;;23.63;6.93;;;;;;;6.68;100.00;102546.19;5092349;28;20406;-46
2023/05/30 02:39:57;;;;;;;28.88;6.63;;;;;;;6.69;100.00;102547.97;5092975;28;20456;-44
2023/05/30 02:42:23;;;;;;;22.10;6.32;;;;;;;6.64;100.00;102550.19;5092052;28;20024;-42
2023/05/30 02:44:48;;;;;;;20.17;6.97;;;;;;;6.62;100.00;102554.31;5093058;28;20020;-43
2023/05/30 02:47:13;;;;;;;18.58;7.40;;;;;;;6.67;100.00;102559.78;5092635;28;20445;-44
2023/05/30 02:49:39;;;;;;;22.42;6.80;;;;;;;6.64;100.00;102552.75;5092495;28;20020;-42
2023/05/30 02:52:05;;;;;;;20.67;6.50;;;;;;;6.63;100.00;102558.66;5093020;28;20024;-43
2023/05/30 02:54:31;;;;;;;22.77;7.20;;;;;;;6.65;100.00;102548.50;5092044;28;20028;-43
2023/05/30 02:56:56;;;;;;;29.00;6.95;;;;;;;6.63;100.00;102545.84;5093041;28;20099;-46
2023/05/30 02:59:22;;;;;;;26.27;7.38;;;;;;;6.64;100.00;102547.63;5092650;28;20123;-43
2023/05/30 03:01:47;;;;;;;27.35;7.88;;;;;;;6.60;100.00;102540.50;5092069;28;20020;-43
2023/05/30 03:04:13;;;;;;;28.48;7.32;;;;;;;6.65;100.00;102548.50;5092795;28;20107;-45
2023/05/30 03:06:38;;;;;;;25.10;7.35;;;;;;;6.65;100.00;102549.41;5092567;28;20021;-45
2023/05/30 03:09:04;;;;;;;29.92;7.35;;;;;;;6.69;100.00;102540.28;5092137;28;20115;-43
2023/05/30 03:11:29;;;;;;;22.90;7.28;;;;;;;6.68;100.00;102543.63;5092476;28;20426;-43
2023/05/30 03:13:54;;;;;;;26.17;7.15;;;;;;;6.72;100.00;102545.63;5092684;28;20024;-43
2023/05/30 03:16:20;;;;;;;23.50;7.38;;;;;;;6.75;100.00;102544.19;5091462;28;20032;-43
2023/05/30 03:18:46;;;;;;;25.85;6.90;;;;;;;6.79;100.00;102555.56;5092339;28;20089;-44
2023/05/30 03:21:11;;;;;;;27.40;6.80;;;;;;;6.87;100.00;102562.13;5092576;28;20478;-43
2023/05/30 03:23:37;;;;;;;17.83;6.78;;;;;;;6.94;100.00;102567.69;5091630;28;20472;-46
2023/05/30 03:26:06;;;;;;;23.45;6.88;;;;;;;6.98;100.00;102559.44;5093114;28;20367;-43
2023/05/30 03:28:32;;;;;;;19.35;6.45;;;;;;;7.00;100.00;102563.91;5092150;28;20032;-46
2023/05/30 03:30:57;;;;;;;24.42;6.97;;;;;;;7.04;100.00;102565.00;5091759;28;20035;-47
2023/05/30 03:33:23;;;;;;;23.73;6.70;;;;;;;7.08;100.00;102572.13;5092395;28;20031;-47
2023/05/30 03:35:48;;;;;;;20.48;6.63;;;;;;;7.13;100.00;102568.22;5092739;28;20099;-47
2023/05/30 03:38:14;;;;;;;22.23;7.13;;;;;;;7.17;100.00;102572.78;5091841;28;20471;-48
2023/05/30 03:40:39;;;;;;;22.65;7.43;;;;;;;7.21;100.00;102573.91;5092300;28;20594;-46
2023/05/30 03:43:05;;;;;;;23.08;6.65;;;;;;;7.23;100.00;102578.34;5092731;28;20035;-47
2023/05/30 03:45:30;;;;;;;18.30;6.25;;;;;;;7.27;100.00;102573.44;5091282;28;20028;-46
2023/05/30 03:47:55;;;;;;;20.08;7.20;;;;;;;7.27;100.00;102578.56;5092603;28;20085;-43
2023/05/30 03:50:20;;;;;;;22.45;7.38;;;;;;;7.29;100.00;102587.28;5094829;28;20349;-45
2023/05/30 03:52:46;;;;;;;23.80;7.00;;;;;;;7.31;100.00;102591.72;5095337;28;20039;-46
2023/05/30 03:55:12;;;;;;;20.58;6.57;;;;;;;7.31;100.00;102591.72;5096257;28;20027;-45
2023/05/30 03:57:37;;;;;;;22.83;6.72;;;;;;;7.36;100.00;102584.34;5095049;28;20024;-46
2023/05/30 04:00:03;;;;;;;23.85;7.30;;;;;;;7.42;100.00;102589.91;5096161;28;20027;-47
2023/05/30 04:02:28;;;;;;;29.30;7.32;;;;;;;7.50;100.00;102593.00;5095964;28;20103;-47
2023/05/30 04:04:54;;;;;;;16.92;6.80;;;;;;;7.56;100.00;102593.44;5095269;28;20106;-46
2023/05/30 04:07:19;;;;;;;23.27;7.45;;;;;;;7.63;100.00;102587.97;5095668;28;20107;-49
2023/05/30 04:09:44;;;;;;;20.58;6.20;;;;;;;7.71;100.00;102593.63;5095905;28;20464;-44
2023/05/30 04:12:10;;;;;;;25.02;6.88;;;;;;;7.77;100.00;102588.03;5094940;28;20487;-46
2023/05/30 04:14:36;;;;;;;22.00;6.70;;;;;;;7.83;100.00;102589.34;5095348;28;20032;-49
2023/05/30 04:17:01;;;;;;;18.55;6.47;;;;;;;7.87;100.00;102591.31;5095901;28;20116;-48
2023/05/30 04:19:26;;;;;;;19.15;6.28;;;;;;;7.94;100.00;102584.97;5094419;28;20048;-46
2023/05/30 04:21:51;;;;;;;22.08;6.85;;;;;;;7.98;100.00;102581.81;5095716;28;20031;-47
2023/05/30 04:24:17;;;;;;;24.27;7.20;;;;;;;8.02;100.00;102583.78;5095428;28;20078;-46
2023/05/30 04:26:45;;;;;;;22.20;7.22;;;;;;;8.07;100.00;102589.25;5094851;28;20046;-45
2023/05/30 04:29:11;;;;;;;18.58;6.40;;;;;;;8.08;100.00;102586.78;5095416;28;20081;-43
2023/05/30 04:31:36;;;;;;;25.80;7.57;;;;;;;8.12;100.00;102587.88;5095415;28;20482;-46
2023/05/30 04:34:02;;;;;;;20.42;6.10;;;;;;;8.18;100.00;102588.28;5094690;28;20032;-48
2023/05/30 04:36:27;;;;;;;24.40;7.35;;;;;;;8.20;100.00;102589.28;5095170;28;20423;-47
2023/05/30 04:38:53;;;;;;;21.15;6.18;;;;;;;8.28;100.00;102588.91;5095266;28;20543;-45
2023/05/30 04:41:20;;;;;;;24.33;7.32;;;;;;;8.34;100.00;102589.28;5094225;28;20027;-45
2023/05/30 04:43:52;;;;;;;18.70;6.35;;;;;;;8.39;100.00;102591.41;5095184;28;20020;-47
2023/05/30 04:46:21;;;;;;;24.63;6.82;;;;;;;8.48;100.00;102588.59;5095045;28;20024;-47
2023/05/30 04:48:53;;;;;;;23.08;6.93;;;;;;;8.54;100.00;102594.13;5094491;28;20016;-48
2023/05/30 04:51:25;;;;;;;17.67;6.57;;;;;;;8.59;100.00;102591.88;5094802;28;20028;-47
2023/05/30 04:53:51;;;;;;;24.25;7.13;;;;;;;8.63;100.00;102587.81;5094476;28;20040;-45
2023/05/30 04:56:16;;;;;;;19.35;6.63;;;;;;;8.69;100.00;102586.53;5094468;28;20122;-47
2023/05/30 04:58:45;;;;;;;22.48;6.97;;;;;;;8.76;100.00;102585.25;5095036;28;20023;-47
2023/05/30 05:01:10;;;;;;;22.75;6.47;;;;;;;8.78;100.00;102588.81;5093268;28;20043;-47
2023/05/30 05:03:39;;;;;;;20.48;6.40;;;;;;;8.82;100.00;102588.22;5094579;28;20012;-48
2023/05/30 05:06:06;;;;;;;18.65;6.53;;;;;;;8.89;100.00;102587.81;5094877;28;20031;-49
2023/05/30 05:08:33;;;;;;;16.27;6.35;;;;;;;8.96;100.00;102585.63;5093488;28;20472;-47
2023/05/30 05:10:59;;;;;;;25.42;7.57;;;;;;;9.00;100.00;102588.53;5094706;28;20376;-45
2023/05/30 05:13:25;;;;;;;22.10;6.18;;;;;;;9.03;100.00;102586.13;5094180;28;20535;-47
2023/05/30 05:15:50;;;;;;;19.85;6.95;;;;;;;9.13;100.00;102587.63;5093930;28;20103;-46
2023/05/30 05:18:15;;;;;;;17.15;6.32;;;;;;;9.20;100.00;102578.59;5094113;28;20039;-44
2023/05/30 05:20:41;;;;;;;21.48;6.43;;;;;;;9.22;100.00;102593.34;5094764;28;20107;-45
2023/05/30 05:23:06;;;;;;;22.75;6.57;;;;;;;9.28;100.00;102579.97;5093789;28;20030;-47
2023/05/30 05:25:31;;;;;;;24.75;7.43;;;;;;;9.34;100.00;102588.06;5094162;28;20026;-44
2023/05/30 05:27:56;;;;;;;17.00;6.57;;;;;;;9.47;100.00;102592.28;5094517;28;20024;-46
2023/05/30 05:30:22;;;;;;;20.70;7.43;;;;;;;9.50;100.00;102587.38;5093279;28;20020;-43
2023/05/30 05:32:47;;;;;;;17.90;6.80;;;;;;;9.51;99.86;102583.97;5094248;28;20028;-43
2023/05/30 05:35:13;;;;;;;20.85;6.35;;;;;;;9.61;100.00;102597.44;5094280;28;20055;-47
2023/05/30 05:37:38;;;;;;;19.48;6.10;;;;;;;9.64;99.57;102588.19;5093136;28;20024;-49
2023/05/30 05:40:05;;;;;;;19.13;6.32;;;;;;;9.69;98.98;102585.91;5094360;28;20047;-47
2023/05/30 05:42:33;;;;;;;19.35;6.68;;;;;;;9.70;98.79;102583.41;5093728;28;20489;-48
2023/05/30 05:44:58;;;;;;;18.17;6.32;;;;;;;9.73;97.84;102585.28;5093219;28;20380;-48
2023/05/30 05:47:24;;;;;;;17.80;6.28;;;;;;;9.75;97.99;102586.28;5093725;28;20472;-48
2023/05/30 05:49:50;;;;;;;20.80;6.80;;;;;;;9.76;97.31;102585.50;5093904;28;20035;-44
2023/05/30 05:52:15;;;;;;;20.65;7.07;;;;;;;9.78;98.03;102594.19;5093131;28;20031;-44
2023/05/30 05:54:40;;;;;;;16.92;6.93;;;;;;;9.82;97.83;102588.41;5093746;28;20091;-47
2023/05/30 05:57:06;;;;;;;16.48;6.80;;;;;;;9.88;97.28;102591.38;5093987;28;20045;-48
2023/05/30 05:59:31;;;;;;;21.70;6.97;;;;;;;10.03;97.04;102598.25;5092796;28;20016;-47
2023/05/30 06:01:57;;;;;;;23.75;7.40;;;;;;;10.05;95.62;102601.81;5093856;28;20024;-44
2023/05/30 06:04:22;;;;;;;17.30;7.15;;;;;;;10.07;95.02;102605.38;5092623;28;20052;-46
2023/05/30 06:06:47;;;;;;;15.65;7.00;;;;;;;10.16;95.17;102611.06;5093600;28;20020;-47
2023/05/30 06:09:12;;;;;;;16.65;6.97;;;;;;;10.21;95.02;102601.94;5093526;28;20024;-46
2023/05/30 06:11:38;;;;;;;14.90;6.78;;;;;;;10.19;94.03;102602.63;5092318;28;20028;-46
2023/05/30 06:14:04;;;;;;;14.57;6.28;;;;;;;10.24;94.55;102598.66;5093511;28;20411;-47
2023/05/30 06:16:29;;;;;;;16.60;7.10;;;;;;;10.25;92.94;102594.38;5093192;28;20424;-46
2023/05/30 06:18:54;;;;;;;19.30;7.22;;;;;;;10.31;93.21;102597.31;5092560;28;20123;-47
2023/05/30 06:21:19;;;;;;;14.73;6.43;;;;;;;10.46;92.07;102605.97;5092945;28;20032;-44
2023/05/30 06:23:45;;;;;;;16.00;6.35;;;;;;;10.51;91.06;102599.41;5093329;28;20107;-47
2023/05/30 06:26:10;;;;;;;16.48;6.35;;;;;;;10.64;91.49;102594.94;5092739;28;20032;-46
2023/05/30 06:28:36;;;;;;;17.33;7.05;;;;;;;10.81;90.63;102595.94;5093050;28;20411;-47
2023/05/30 06:31:01;;;;;;;15.45;6.70;;;;;;;10.94;91.01;102600.97;5093392;28;20138;-47
2023/05/30 06:33:26;;;;;;;18.13;6.40;;;;;;;11.23;90.67;102595.66;5092144;28;20392;-49
2023/05/30 06:35:52;;;;;;;19.77;6.80;;;;;;;11.22;88.27;102597.34;5093180;28;20384;-48
2023/05/30 06:38:17;;;;;;;16.67;6.82;;;;;;;11.20;87.09;102604.09;5092696;28;20032;-48
2023/05/30 06:40:42;;;;;;;17.55;6.38;;;;;;;11.19;87.13;102602.31;5092371;28;20505;-46
2023/05/30 06:43:08;;;;;;;17.50;6.70;;;;;;;11.24;86.82;102600.00;5093134;28;20076;-46
2023/05/30 06:45:33;;;;;;;13.90;5.78;;;;;;;11.45;87.25;102593.44;5092764;28;20032;-47
2023/05/30 06:47:59;;;;;;;17.17;6.25;;;;;;;11.60;85.40;102595.06;5092255;28;20411;-46
2023/05/30 06:50:25;;;;;;;17.92;6.55;;;;;;;11.82;86.32;102597.09;5092602;28;20026;-48
2023/05/30 06:52:50;;;;;;;14.13;6.05;;;;;;;11.88;85.28;102599.09;5092640;28;20035;-47
2023/05/30 06:55:15;;;;;;;14.73;6.25;;;;;;;11.69;83.28;102601.59;5092028;28;20032;-44
2023/05/30 06:57:43;;;;;;;15.82;6.43;;;;;;;11.58;83.51;102617.31;5093044;28;20020;-46
2023/05/30 07:00:09;;;;;;;13.52;6.63;;;;;;;11.49;84.50;102610.88;5093085;28;20020;-49
2023/05/30 07:02:35;;;;;;;15.32;6.32;;;;;;;11.43;85.11;102607.94;5091749;28;20033;-48
2023/05/30 07:05:00;;;;;;;12.13;6.38;;;;;;;11.25;84.12;102612.13;5092788;28;20459;-47
2023/05/30 07:07:26;;;;;;;15.18;6.50;;;;;;;11.22;84.91;102617.09;5092617;28;20020;-48
2023/05/30 07:09:51;;;;;;;16.15;7.30;;;;;;;11.24;85.60;102618.06;5092122;28;20029;-43
2023/05/30 07:12:16;;;;;;;17.92;6.57;;;;;;;11.35;84.78;102617.84;5092576;28;20055;-47
2023/05/30 07:14:41;;;;;;;12.52;6.25;;;;;;;11.47;84.83;102617.63;5092155;28;20024;-46
2023/05/30 07:17:07;;;;;;;16.63;7.25;;;;;;;11.50;83.23;102625.56;5092816;28;20020;-48
2023/05/30 07:19:32;;;;;;;16.05;6.32;;;;;;;11.57;82.49;102620.72;5092407;28;20166;-49
2023/05/30 07:21:57;;;;;;;13.85;6.38;;;;;;;11.70;83.20;102618.00;5091900;28;20111;-46
2023/05/30 07:24:23;;;;;;;13.18;6.60;;;;;;;11.86;82.71;102619.69;5093680;28;20103;-48
2023/05/30 07:26:51;;;;;;;14.18;6.20;;;;;;;12.11;81.02;102621.91;5096837;28;20028;-47
2023/05/30 07:29:17;;;;;;;14.40;6.72;;;;;;;12.46;81.82;102620.22;5095742;28;20035;-47
2023/05/30 07:31:43;;;;;;;15.60;6.47;;;;;;;12.77;80.39;102624.34;5096379;28;20099;-43
2023/05/30 07:34:08;;;;;;;12.55;6.22;;;;;;;12.96;78.41;102618.38;5096599;28;20103;-43
2023/05/30 07:36:33;;;;;;;13.52;6.72;;;;;;;13.18;76.71;102619.34;5095409;28;20020;-45
2023/05/30 07:38:58;;;;;;;13.50;5.75;;;;;;;13.36;76.60;102626.22;5096644;28;20379;-46
2023/05/30 07:41:24;;;;;;;12.93;6.10;;;;;;;13.31;74.80;102626.00;5096213;28;20023;-47
2023/05/30 07:43:49;;;;;;;15.30;6.20;;;;;;;13.24;74.97;102634.31;5095767;28;20491;-47
2023/05/30 07:46:15;;;;;;;14.15;6.28;;;;;;;13.09;75.13;102637.97;5096499;28;20376;-49
2023/05/30 07:48:41;;;;;;;14.65;5.97;;;;;;;12.87;75.39;102632.53;5096215;28;20383;-50
2023/05/30 07:51:08;;;;;;;12.32;6.10;;;;;;;12.58;75.79;102625.13;5095496;28;20063;-46
2023/05/30 07:53:34;;;;;;;15.90;6.10;;;;;;;12.33;76.85;102625.56;5096006;28;20028;-49
2023/05/30 07:55:59;;;;;;;16.48;6.60;;;;;;;12.28;78.39;102635.69;5096450;28;20031;-45
2023/05/30 07:58:25;;;;;;;13.93;6.32;;;;;;;12.42;78.43;102628.66;5095164;28;20361;-49
2023/05/30 08:00:50;;;;;;;18.92;7.00;;;;;;;12.62;78.38;102631.34;5096134;28;20460;-46
2023/05/30 08:03:15;;;;;;;13.80;6.18;;;;;;;12.68;77.79;102616.13;5095473;28;20024;-47
2023/05/30 08:05:41;;;;;;;13.45;6.03;;;;;;;12.54;78.05;102620.59;5094995;28;20024;-48
2023/05/30 08:08:07;;;;;;;13.95;6.18;;;;;;;12.32;77.92;102618.66;5095805;28;20107;-48
2023/05/30 08:10:33;;;;;;;14.63;6.13;;;;;;;12.14;77.92;102619.47;5095687;28;20065;-48
2023/05/30 08:12:58;;;;;;;15.98;6.95;;;;;;;12.05;78.91;102619.00;5095043;28;20032;-48
2023/05/30 08:15:24;;;;;;;16.55;7.15;;;;;;;12.14;79.10;102616.88;5095536;28;20070;-48
2023/05/30 08:17:50;;;;;;;11.88;6.32;;;;;;;12.32;78.90;102613.47;5095008;28;20376;-47
2023/05/30 08:20:16;;;;;;;14.93;6.95;;;;;;;12.57;79.71;102607.81;5095263;28;20040;-47
2023/05/30 08:22:42;;;;;;;13.10;6.88;;;;;;;12.77;77.58;102607.91;5095609;28;20438;-49
2023/05/30 08:25:08;;;;;;;14.50;6.45;;;;;;;12.79;76.16;102614.06;5094774;28;20024;-49
2023/05/30 08:27:37;;;;;;;16.48;7.35;;;;;;;12.79;75.12;102614.94;5095437;28;20446;-47
2023/05/30 08:30:04;;;;;;;14.27;6.43;;;;;;;12.85;74.10;102610.06;5095574;28;20056;-48
2023/05/30 08:32:30;;;;;;;12.95;6.50;;;;;;;13.03;75.13;102616.94;5094259;28;20071;-48
2023/05/30 08:34:55;;;;;;;14.00;6.82;;;;;;;13.24;75.70;102616.19;5094764;28;20051;-48
2023/05/30 08:37:21;;;;;;;14.02;6.47;;;;;;;13.37;75.53;102610.78;5093719;28;20376;-48
2023/05/30 08:39:46;;;;;;;17.63;6.70;;;;;;;13.57;75.82;102600.44;5094842;28;20052;-45
2023/05/30 08:42:12;;;;;;;14.40;7.03;;;;;;;13.67;73.98;102605.22;5093788;28;20157;-48
2023/05/30 08:44:39;;;;;;;13.65;6.95;;;;;;;13.58;71.67;102599.66;5095014;28;20051;-49
2023/05/30 08:47:12;;;;;;;15.93;7.40;;;;;;;13.75;73.07;102603.00;5094468;28;20024;-49
2023/05/30 08:49:41;;;;;;;13.90;6.53;;;;;;;13.76;70.75;102600.50;5094674;28;20304;-45
2023/05/30 08:52:11;;;;;;;17.27;7.25;;;;;;;13.93;72.16;102597.72;5095300;28;20067;-47
2023/05/30 08:54:44;;;;;;;21.23;7.00;;;;;;;14.15;70.12;102591.75;5094200;28;20024;-49
2023/05/30 08:57:14;;;;;;;22.75;7.18;;;;;;;14.26;70.70;102582.75;5095107;28;20089;-48
2023/05/30 08:59:40;;;;;;;14.57;6.93;;;;;;;14.43;71.56;102588.63;5094614;28;20371;-47
2023/05/30 09:02:07;;;;;;;14.80;7.13;;;;;;;14.58;69.36;102595.31;5093854;28;20035;-49
2023/05/30 09:04:34;;;;;;;14.00;7.15;;;;;;;14.75;67.16;102589.09;5094630;28;20357;-48
2023/05/30 09:07:02;;;;;;;16.35;7.13;;;;;;;14.98;68.61;102584.81;5094846;28;20099;-43
2023/05/30 09:09:29;;;;;;;13.43;7.00;;;;;;;14.85;66.55;102585.19;5094171;28;20118;-46
2023/05/30 09:11:54;;;;;;;13.77;6.38;;;;;;;15.22;69.10;102580.53;5094712;28;20060;-48
2023/05/30 09:14:20;;;;;;;15.23;7.43;;;;;;;15.07;66.60;102586.91;5093839;28;20051;-44
2023/05/30 09:16:46;;;;;;;13.88;7.03;;;;;;;15.07;65.58;102580.84;5094545;28;20028;-47
2023/05/30 09:19:11;;;;;;;19.65;7.47;;;;;;;15.21;65.82;102581.34;5094425;28;20071;-45
2023/05/30 09:21:36;;;;;;;14.05;7.18;;;;;;;15.23;65.77;102571.91;5093438;28;20448;-46
2023/05/30 09:24:04;;;;;;;13.30;7.45;;;;;;;15.35;64.90;102567.19;5094621;28;20032;-48
2023/05/30 09:26:29;;;;;;;15.35;7.10;;;;;;;15.47;64.16;102572.81;5094194;28;20020;-49
2023/05/30 09:28:55;;;;;;;12.95;7.07;;;;;;;15.46;62.29;102570.19;5093472;28;20016;-49
2023/05/30 09:31:22;;;;;;;13.88;6.88;;;;;;;15.69;61.82;102576.22;5093911;28;20134;-48
2023/05/30 09:33:50;;;;;;;14.50;7.25;;;;;;;15.86;62.44;102561.25;5094438;28;20388;-49
2023/05/30 09:36:20;;;;;;;16.20;7.43;;;;;;;15.86;60.20;102571.66;5093372;28;20020;-46
2023/05/30 09:39:05;;;;;;;11.77;6.57;;;;;;;16.15;62.27;102568.28;5094379;28;20035;-48
2023/05/30 09:41:31;;;;;;;16.65;7.72;;;;;;;16.30;59.77;102561.00;5093981;28;20031;-50
2023/05/30 09:43:57;;;;;;;13.98;7.70;;;;;;;16.23;58.59;102566.81;5093275;28;20059;-49
2023/05/30 09:46:32;;;;;;;13.52;7.93;;;;;;;16.52;60.00;102569.53;5093422;28;20051;-49
2023/05/30 09:48:57;;;;;;;12.93;7.18;;;;;;;16.75;58.85;102558.13;5093828;28;20024;-48
2023/05/30 09:51:26;;;;;;;13.43;7.43;;;;;;;17.21;58.11;102563.91;5092756;28;20016;-48
2023/05/30 09:53:55;;;;;;;15.82;8.02;;;;;;;17.02;55.79;102557.25;5093799;28;20563;-48
2023/05/30 09:56:27;;;;;;;16.45;7.63;;;;;;;17.22;57.28;102565.69;5092932;28;20062;-46
2023/05/30 09:58:58;;;;;;;19.63;7.78;;;;;;;17.64;54.87;102559.03;5093978;28;20032;-49
2023/05/30 10:01:23;;;;;;;15.50;8.15;;;;;;;17.88;53.47;102552.69;5093606;28;20028;-49
2023/05/30 10:03:48;;;;;;;12.60;7.50;;;;;;;18.38;53.51;102547.91;5093109;28;20020;-49
2023/05/30 10:06:14;;;;;;;18.20;8.65;;;;;;;18.41;51.95;102550.63;5093789;28;20032;-49
2023/05/30 10:08:43;;;;;;;13.98;7.70;;;;;;;18.62;49.53;102554.59;5093296;28;20035;-51
2023/05/30 10:11:08;;;;;;;15.77;7.50;;;;;;;19.28;48.07;102547.34;5093091;28;20078;-49
2023/05/30 10:13:34;;;;;;;16.77;7.38;;;;;;;19.66;46.61;102539.38;5093340;28;20031;-49
2023/05/30 10:16:00;;;;;;;13.65;7.00;;;;;;;19.58;46.17;102540.97;5093741;28;20066;-48
2023/05/30 10:18:26;;;;;;;12.75;6.65;;;;;;;20.97;44.34;102538.03;5092278;28;20052;-48
2023/05/30 10:20:52;;;;;;;15.57;7.82;;;;;;;21.46;41.29;102542.13;5093468;28;20035;-47
2023/05/30 10:23:19;;;;;;;15.35;6.72;;;;;;;21.98;39.45;102553.19;5093004;28;20056;-48
2023/05/30 10:25:48;;;;;;;14.35;6.85;;;;;;;22.35;39.65;102550.88;5092757;28;20020;-50
2023/05/30 10:28:26;;;;;;;13.38;6.72;;;;;;;22.98;39.75;102550.44;5093492;28;20056;-50
2023/05/30 10:30:52;;;;;;;12.20;7.15;;;;;;;23.38;36.37;102549.72;5093517;28;20099;-49
2023/05/30 10:33:20;;;;;;;13.45;6.50;;;;;;;23.90;37.70;102548.06;5092235;28;20031;-46
2023/05/30 10:35:46;;;;;;;13.45;5.85;;;;;;;23.92;35.73;102544.59;5093233;28;20024;-49
2023/05/30 10:38:13;;;;;;;10.23;5.40;;;;;;;24.60;35.55;102544.56;5093385;28;20024;-49
2023/05/30 10:41:04;;;;;;;14.27;6.47;;;;;;;24.65;36.23;102544.59;5092390;28;20107;-48
2023/05/30 10:43:38;;;;;;;13.95;6.55;;;;;;;24.09;35.80;102541.09;5092922;28;20024;-49
2023/05/30 10:46:18;;;;;;;10.75;6.22;;;;;;;25.10;34.61;102540.06;5092349;28;20040;-47
2023/05/30 10:48:44;;;;;;;13.10;6.47;;;;;;;25.25;32.55;102541.72;5093006;28;20420;-45
2023/05/30 10:51:14;;;;;;;12.45;6.45;;;;;;;25.37;32.56;102540.84;5093040;28;20077;-48
2023/05/30 10:53:46;;;;;;;10.05;5.70;;;;;;;25.54;33.90;102535.47;5091932;28;20031;-45
2023/05/30 10:56:31;;;;;;;10.82;5.95;;;;;;;25.81;34.44;102530.88;5093225;28;20034;-50
2023/05/30 10:58:57;;;;;;;11.55;5.55;;;;;;;25.71;32.20;102534.47;5092009;28;20035;-46
2023/05/30 11:01:27;;;;;;;15.52;6.65;;;;;;;24.99;32.46;102531.28;5092095;28;20028;-48
2023/05/30 11:04:06;;;;;;;14.70;6.28;;;;;;;26.19;32.27;102521.75;5093005;28;20027;-49
2023/05/30 11:06:44;;;;;;;13.07;5.53;;;;;;;26.99;31.19;102519.19;5092543;28;20447;-50
2023/05/30 11:09:14;;;;;;;11.05;5.53;;;;;;;27.39;29.37;102510.72;5092696;28;20034;-49
2023/05/30 11:11:52;;;;;;;13.88;5.93;;;;;;;27.03;30.25;102528.81;5092704;28;20531;-49
2023/05/30 11:14:30;;;;;;;8.02;5.20;;;;;;;26.86;30.13;102518.47;5091953;28;20069;-50
2023/05/30 11:16:55;;;;;;;13.07;6.03;;;;;;;27.13;29.82;102509.28;5092845;28;20073;-49